createdAt,value
2017-12-30T00:01:34.732Z,2.70
2017-12-30T00:04:00.699Z,2.60
2017-12-30T00:06:27.436Z,2.50
2017-12-30T00:08:54.183Z,2.60
2017-12-30T00:11:20.910Z,2.60
2017-12-30T00:13:46.911Z,2.60
2017-12-30T00:16:13.169Z,2.70
2017-12-30T00:18:39.883Z,2.80
2017-12-30T00:21:05.840Z,2.80
2017-12-30T00:23:33.813Z,3.00
2017-12-30T00:25:59.791Z,3.00
2017-12-30T00:28:25.773Z,2.90
2017-12-30T00:30:51.751Z,2.90
2017-12-30T00:33:17.759Z,2.90
2017-12-30T00:35:43.731Z,2.90
2017-12-30T00:38:10.804Z,2.90
2017-12-30T00:40:36.777Z,2.90
2017-12-30T00:43:03.478Z,3.00
2017-12-30T00:45:29.456Z,2.90
2017-12-30T00:47:55.452Z,3.10
2017-12-30T00:50:21.452Z,3.10
2017-12-30T00:52:47.418Z,3.10
2017-12-30T00:55:14.116Z,3.10
2017-12-30T00:57:40.081Z,3.10
2017-12-30T01:00:06.088Z,3.10
2017-12-30T01:02:32.803Z,3.20
2017-12-30T01:04:58.776Z,3.20
2017-12-30T01:07:24.775Z,3.10
2017-12-30T01:09:51.479Z,2.90
2017-12-30T01:12:17.454Z,2.90
2017-12-30T01:14:43.431Z,2.90
2017-12-30T01:17:09.391Z,3.10
2017-12-30T01:19:35.391Z,3.00
2017-12-30T01:22:01.356Z,3.10
2017-12-30T01:24:27.319Z,3.00
2017-12-30T01:26:54.379Z,2.90
2017-12-30T01:29:21.086Z,3.00
2017-12-30T01:31:47.066Z,3.00
2017-12-30T01:34:13.081Z,3.00
2017-12-30T01:36:39.032Z,3.00
2017-12-30T01:39:04.991Z,3.10
2017-12-30T01:41:30.963Z,3.20
2017-12-30T01:43:56.922Z,3.10
2017-12-30T01:46:22.888Z,3.20
2017-12-30T01:49:01.745Z,3.20
2017-12-30T01:51:27.776Z,3.10
2017-12-30T01:53:53.753Z,3.20
2017-12-30T01:56:19.719Z,3.20
2017-12-30T01:58:45.712Z,3.30
2017-12-30T02:01:11.689Z,3.20
2017-12-30T02:03:37.671Z,3.30
2017-12-30T02:06:03.641Z,3.30
2017-12-30T02:08:30.374Z,3.30
2017-12-30T02:10:56.331Z,3.30
2017-12-30T02:13:22.332Z,3.40
2017-12-30T02:15:49.046Z,3.40
2017-12-30T02:18:15.031Z,3.40
2017-12-30T02:20:41.037Z,3.30
2017-12-30T02:23:07.020Z,3.40
2017-12-30T02:25:33.350Z,3.50
2017-12-30T02:27:59.287Z,3.40
2017-12-30T02:30:26.017Z,3.50
2017-12-30T02:32:52.724Z,3.50
2017-12-30T02:35:18.690Z,3.50
2017-12-30T02:37:45.389Z,3.60
2017-12-30T02:40:11.339Z,3.50
2017-12-30T02:42:38.027Z,3.70
2017-12-30T02:45:03.985Z,3.70
2017-12-30T02:47:29.919Z,3.80
2017-12-30T02:49:56.614Z,3.80
2017-12-30T02:52:22.608Z,3.80
2017-12-30T02:54:48.582Z,3.80
2017-12-30T02:57:14.543Z,3.90
2017-12-30T02:59:40.506Z,4.00
2017-12-30T03:02:06.461Z,4.00
2017-12-30T03:04:33.148Z,4.20
2017-12-30T03:06:59.137Z,4.20
2017-12-30T03:09:25.139Z,4.30
2017-12-30T03:11:51.843Z,4.40
2017-12-30T03:14:17.798Z,4.40
2017-12-30T03:16:44.487Z,4.50
2017-12-30T03:19:10.440Z,4.50
2017-12-30T03:21:36.408Z,4.60
2017-12-30T03:24:02.384Z,4.50
2017-12-30T03:26:28.507Z,4.40
2017-12-30T03:28:54.471Z,4.50
2017-12-30T03:31:20.451Z,4.50
2017-12-30T03:33:47.200Z,4.60
2017-12-30T03:36:13.899Z,4.70
2017-12-30T03:38:39.858Z,4.70
2017-12-30T03:41:05.846Z,4.80
2017-12-30T03:43:31.831Z,4.80
2017-12-30T03:45:57.792Z,4.70
2017-12-30T03:48:24.057Z,4.80
2017-12-30T03:50:50.764Z,4.90
2017-12-30T03:53:16.723Z,4.90
2017-12-30T03:55:43.613Z,5.00
2017-12-30T03:58:09.573Z,4.90
2017-12-30T04:00:35.523Z,4.90
2017-12-30T04:03:01.547Z,4.90
2017-12-30T04:05:27.497Z,5.10
2017-12-30T04:07:53.467Z,5.10
2017-12-30T04:10:20.192Z,5.00
2017-12-30T04:12:46.160Z,5.00
2017-12-30T04:15:12.169Z,5.00
2017-12-30T04:17:38.464Z,5.10
2017-12-30T04:20:04.427Z,5.20
2017-12-30T04:22:30.390Z,5.20
2017-12-30T04:24:56.362Z,5.20
2017-12-30T04:27:22.314Z,5.20
2017-12-30T04:29:48.263Z,5.20
2017-12-30T04:32:14.261Z,5.30
2017-12-30T04:34:40.238Z,5.40
2017-12-30T04:37:06.923Z,5.40
2017-12-30T04:39:32.877Z,5.40
2017-12-30T04:41:58.828Z,5.40
2017-12-30T04:44:24.801Z,5.40
2017-12-30T04:46:50.742Z,5.50
2017-12-30T04:49:17.443Z,5.50
2017-12-30T04:51:43.411Z,5.50
2017-12-30T04:54:10.104Z,5.40
2017-12-30T04:56:36.054Z,5.40
2017-12-30T04:59:02.069Z,5.50
2017-12-30T05:01:28.154Z,5.40
2017-12-30T05:03:54.154Z,5.50
2017-12-30T05:06:20.167Z,5.50
2017-12-30T05:08:46.119Z,5.60
2017-12-30T05:11:12.103Z,5.60
2017-12-30T05:13:38.068Z,5.50
2017-12-30T05:16:04.011Z,5.60
2017-12-30T05:18:29.998Z,5.60
2017-12-30T05:20:55.960Z,5.60
2017-12-30T05:23:21.927Z,5.60
2017-12-30T05:25:48.119Z,5.70
2017-12-30T05:28:14.071Z,5.60
2017-12-30T05:30:40.023Z,5.60
2017-12-30T05:33:05.984Z,5.70
2017-12-30T05:35:31.929Z,5.70
2017-12-30T05:37:58.630Z,5.70
2017-12-30T05:40:24.588Z,5.70
2017-12-30T05:42:51.301Z,5.80
2017-12-30T05:45:17.282Z,5.70
2017-12-30T05:47:43.239Z,5.80
2017-12-30T05:50:09.219Z,5.80
2017-12-30T05:52:35.218Z,5.70
2017-12-30T05:55:01.189Z,5.80
2017-12-30T05:57:27.166Z,5.80
2017-12-30T05:59:53.456Z,5.80
2017-12-30T06:02:19.413Z,5.80
2017-12-30T06:04:45.363Z,5.80
2017-12-30T06:07:11.334Z,5.80
2017-12-30T06:09:38.028Z,5.70
2017-12-30T06:12:04.012Z,5.80
2017-12-30T06:14:29.987Z,5.80
2017-12-30T06:16:55.963Z,5.80
2017-12-30T06:19:21.903Z,5.90
2017-12-30T06:21:47.863Z,5.80
2017-12-30T06:24:13.794Z,5.80
2017-12-30T06:26:40.523Z,5.70
2017-12-30T06:29:06.460Z,5.70
2017-12-30T06:31:33.155Z,5.70
2017-12-30T06:33:59.115Z,5.70
2017-12-30T06:36:25.837Z,5.80
2017-12-30T06:38:51.804Z,5.80
2017-12-30T06:41:17.800Z,5.80
2017-12-30T06:43:44.499Z,5.70
2017-12-30T06:46:10.473Z,5.70
2017-12-30T06:48:37.199Z,5.80
2017-12-30T06:51:03.884Z,5.80
2017-12-30T06:53:29.879Z,5.80
2017-12-30T06:55:55.864Z,5.90
2017-12-30T06:58:21.813Z,5.70
2017-12-30T07:00:47.796Z,5.80
2017-12-30T07:03:13.931Z,5.80
2017-12-30T07:05:39.895Z,5.90
2017-12-30T07:08:05.884Z,6.00
2017-12-30T07:10:31.824Z,5.90
2017-12-30T07:12:57.764Z,5.80
2017-12-30T07:15:23.715Z,5.80
2017-12-30T07:17:49.703Z,5.80
2017-12-30T07:20:15.657Z,5.70
2017-12-30T07:22:41.626Z,5.80
2017-12-30T07:25:07.611Z,5.80
2017-12-30T07:27:33.563Z,5.80
2017-12-30T07:30:00.310Z,5.70
2017-12-30T07:32:26.547Z,5.80
2017-12-30T07:34:52.496Z,5.80
2017-12-30T07:37:25.583Z,5.80
2017-12-30T07:39:51.560Z,5.80
2017-12-30T07:42:18.279Z,5.70
2017-12-30T07:44:44.251Z,5.70
2017-12-30T07:47:10.206Z,5.60
2017-12-30T07:49:36.169Z,5.70
2017-12-30T07:52:02.864Z,5.60
2017-12-30T07:54:28.844Z,5.60
2017-12-30T07:56:54.818Z,5.70
2017-12-30T07:59:20.767Z,5.70
2017-12-30T08:01:47.459Z,5.70
2017-12-30T08:04:13.438Z,5.70
2017-12-30T08:06:39.426Z,5.80
2017-12-30T08:09:05.403Z,5.80
2017-12-30T08:11:31.378Z,5.80
2017-12-30T08:13:58.071Z,5.70
2017-12-30T08:16:24.041Z,5.70
2017-12-30T08:18:50.758Z,5.70
2017-12-30T08:21:17.443Z,5.70
2017-12-30T08:23:43.403Z,5.70
2017-12-30T08:26:09.379Z,5.70
2017-12-30T08:28:35.343Z,5.70
2017-12-30T08:31:01.357Z,5.80
2017-12-30T08:33:27.311Z,5.70
2017-12-30T08:35:53.254Z,5.70
2017-12-30T08:38:19.946Z,5.60
2017-12-30T08:40:46.051Z,5.60
2017-12-30T08:43:12.029Z,5.70
2017-12-30T08:45:38.746Z,5.70
2017-12-30T08:48:04.715Z,5.70
2017-12-30T08:50:30.678Z,5.60
2017-12-30T08:52:56.644Z,5.60
2017-12-30T08:55:23.335Z,5.80
2017-12-30T08:57:49.303Z,5.80
2017-12-30T09:00:15.984Z,5.60
2017-12-30T09:02:41.979Z,5.60
2017-12-30T09:05:07.963Z,5.50
2017-12-30T09:07:33.923Z,5.60
2017-12-30T09:09:59.859Z,5.60
2017-12-30T09:12:25.815Z,5.60
2017-12-30T09:14:51.768Z,5.70
2017-12-30T09:17:18.463Z,5.50
2017-12-30T09:19:44.699Z,5.50
2017-12-30T09:22:10.643Z,5.50
2017-12-30T09:24:37.341Z,5.40
2017-12-30T09:27:03.307Z,5.30
2017-12-30T09:29:30.003Z,5.30
2017-12-30T09:31:55.935Z,5.30
2017-12-30T09:34:22.076Z,5.40
2017-12-30T09:36:48.771Z,5.40
2017-12-30T09:39:14.727Z,5.40
2017-12-30T09:41:40.684Z,5.40
2017-12-30T09:44:06.640Z,5.40
2017-12-30T09:46:32.615Z,5.40
2017-12-30T09:48:59.327Z,5.40
2017-12-30T09:51:25.304Z,5.40
2017-12-30T09:53:51.244Z,5.40
2017-12-30T09:56:17.181Z,5.40
2017-12-30T09:58:43.151Z,5.40
2017-12-30T10:01:09.100Z,5.40
2017-12-30T10:03:35.255Z,5.40
2017-12-30T10:06:01.219Z,5.30
2017-12-30T10:08:27.175Z,5.20
2017-12-30T10:10:53.144Z,5.20
2017-12-30T10:13:19.848Z,5.30
2017-12-30T10:15:45.827Z,5.30
2017-12-30T10:18:11.792Z,5.30
2017-12-30T10:20:37.751Z,5.40
2017-12-30T10:23:04.447Z,5.40
2017-12-30T10:25:30.407Z,5.40
2017-12-30T10:27:57.107Z,5.30
2017-12-30T10:30:23.348Z,5.30
2017-12-30T10:32:49.337Z,5.30
2017-12-30T10:35:15.282Z,5.30
2017-12-30T10:37:41.287Z,5.20
2017-12-30T10:40:07.238Z,5.30
2017-12-30T10:42:33.190Z,5.40
2017-12-30T10:44:59.203Z,5.30
2017-12-30T10:47:25.883Z,5.40
2017-12-30T10:49:51.845Z,5.40
2017-12-30T10:52:18.580Z,5.30
2017-12-30T10:54:44.567Z,5.30
2017-12-30T10:57:10.538Z,5.40
2017-12-30T10:59:37.287Z,5.40
2017-12-30T11:02:04.004Z,5.30
2017-12-30T11:04:29.979Z,5.30
2017-12-30T11:06:56.147Z,5.30
2017-12-30T11:09:22.141Z,5.30
2017-12-30T11:11:48.117Z,5.20
2017-12-30T11:14:14.096Z,5.30
2017-12-30T11:16:40.043Z,5.20
2017-12-30T11:19:06.743Z,5.10
2017-12-30T11:21:32.728Z,5.10
2017-12-30T11:23:58.691Z,5.10
2017-12-30T11:26:24.652Z,5.00
2017-12-30T11:28:51.373Z,4.90
2017-12-30T11:31:17.352Z,4.90
2017-12-30T11:33:43.306Z,4.80
2017-12-30T11:36:09.279Z,4.70
2017-12-30T11:38:35.251Z,4.70
2017-12-30T11:41:01.215Z,4.60
2017-12-30T11:43:27.512Z,4.50
2017-12-30T11:45:53.483Z,4.50
2017-12-30T11:48:19.440Z,4.40
2017-12-30T11:50:45.411Z,4.40
2017-12-30T11:53:11.376Z,4.40
2017-12-30T11:55:37.348Z,4.50
2017-12-30T11:58:03.311Z,4.20
2017-12-30T12:00:29.483Z,4.20
2017-12-30T12:02:56.173Z,4.00
2017-12-30T12:05:22.491Z,4.00
2017-12-30T12:07:48.491Z,4.00
2017-12-30T12:10:14.455Z,4.10
2017-12-30T12:12:40.430Z,4.10
2017-12-30T12:15:06.416Z,4.10
2017-12-30T12:17:32.423Z,4.00
2017-12-30T12:19:58.402Z,4.20
2017-12-30T12:22:25.993Z,4.00
2017-12-30T12:24:51.923Z,4.00
2017-12-30T12:27:17.889Z,4.00
2017-12-30T12:29:44.079Z,3.90
2017-12-30T12:32:10.060Z,3.90
2017-12-30T12:34:36.026Z,3.90
2017-12-30T12:37:02.352Z,3.90
2017-12-30T12:39:28.309Z,4.00
2017-12-30T12:41:54.263Z,3.90
2017-12-30T12:44:20.212Z,4.10
2017-12-30T12:46:46.183Z,4.40
2017-12-30T12:49:12.150Z,4.20
2017-12-30T12:51:38.099Z,4.10
2017-12-30T12:54:04.815Z,3.90
2017-12-30T12:56:30.820Z,3.90
2017-12-30T12:58:56.780Z,4.10
2017-12-30T13:01:23.581Z,4.00
2017-12-30T13:03:49.547Z,4.00
2017-12-30T13:06:16.285Z,3.90
2017-12-30T13:08:42.976Z,4.00
2017-12-30T13:11:09.242Z,4.00
2017-12-30T13:13:35.159Z,4.10
2017-12-30T13:16:01.887Z,4.10
2017-12-30T13:18:27.865Z,4.10
2017-12-30T13:20:53.827Z,4.10
2017-12-30T13:23:19.803Z,4.00
2017-12-30T13:25:45.768Z,4.10
2017-12-30T13:28:11.737Z,4.00
2017-12-30T13:30:37.727Z,4.10
2017-12-30T13:33:04.431Z,4.10
2017-12-30T13:35:30.428Z,4.10
2017-12-30T13:37:56.439Z,4.10
2017-12-30T13:40:22.407Z,4.00
2017-12-30T13:42:48.384Z,4.00
2017-12-30T13:45:14.704Z,4.10
2017-12-30T13:47:40.690Z,4.10
2017-12-30T13:50:06.664Z,4.00
2017-12-30T13:52:32.947Z,3.90
2017-12-30T13:54:58.908Z,4.00
2017-12-30T13:57:24.881Z,3.90
2017-12-30T13:59:50.932Z,3.90
2017-12-30T14:02:17.647Z,4.10
2017-12-30T14:04:43.611Z,4.00
2017-12-30T14:07:09.958Z,4.00
2017-12-30T14:09:35.968Z,3.90
2017-12-30T14:12:02.257Z,3.90
2017-12-30T14:14:29.021Z,4.10
2017-12-30T14:16:54.998Z,4.10
2017-12-30T14:19:20.987Z,4.10
2017-12-30T14:21:46.955Z,4.20
2017-12-30T14:24:12.915Z,4.30
2017-12-30T14:26:38.919Z,4.20
2017-12-30T14:29:05.644Z,4.00
2017-12-30T14:31:32.377Z,4.10
2017-12-30T14:33:58.350Z,4.10
2017-12-30T14:36:24.313Z,4.00
2017-12-30T14:38:50.270Z,4.10
2017-12-30T14:41:16.235Z,4.00
2017-12-30T14:43:42.195Z,3.90
2017-12-30T14:46:08.927Z,4.10
2017-12-30T14:48:35.860Z,4.30
2017-12-30T14:51:01.824Z,4.20
2017-12-30T14:53:27.812Z,4.20
2017-12-30T14:55:54.564Z,4.20
2017-12-30T14:58:21.288Z,4.20
2017-12-30T15:00:47.263Z,4.20
2017-12-30T15:03:13.242Z,4.40
2017-12-30T15:05:39.936Z,4.20
2017-12-30T15:08:06.279Z,4.10
2017-12-30T15:10:32.263Z,4.20
2017-12-30T15:12:58.223Z,4.30
2017-12-30T15:15:24.186Z,4.40
2017-12-30T15:17:51.000Z,4.40
2017-12-30T15:20:16.952Z,4.50
2017-12-30T15:22:42.911Z,4.60
2017-12-30T15:25:08.912Z,4.60
2017-12-30T15:27:34.846Z,4.60
2017-12-30T15:30:00.800Z,4.70
2017-12-30T15:32:26.767Z,4.70
2017-12-30T15:34:52.735Z,4.70
2017-12-30T15:37:18.738Z,4.80
2017-12-30T15:39:44.699Z,4.90
2017-12-30T15:42:11.430Z,5.00
2017-12-30T15:44:37.367Z,5.00
2017-12-30T15:47:04.107Z,5.00
2017-12-30T15:49:30.833Z,5.00
2017-12-30T15:51:56.783Z,5.00
2017-12-30T15:54:22.736Z,5.00
2017-12-30T15:56:48.695Z,5.10
2017-12-30T15:59:15.418Z,5.10
2017-12-30T16:01:41.384Z,5.10
2017-12-30T16:04:07.359Z,5.20
2017-12-30T16:06:33.327Z,5.20
2017-12-30T16:08:59.320Z,5.20
2017-12-30T16:11:25.535Z,5.30
2017-12-30T16:13:51.497Z,5.40
2017-12-30T16:16:17.463Z,5.50
2017-12-30T16:18:43.469Z,5.60
2017-12-30T16:21:09.420Z,5.70
2017-12-30T16:23:36.167Z,5.80
2017-12-30T16:26:02.142Z,5.80
2017-12-30T16:28:28.115Z,5.90
2017-12-30T16:30:54.073Z,6.10
2017-12-30T16:33:20.064Z,6.30
2017-12-30T16:35:46.774Z,6.50
2017-12-30T16:38:12.744Z,6.50
2017-12-30T16:40:39.547Z,6.50
2017-12-30T16:43:12.404Z,6.70
2017-12-30T16:45:38.373Z,6.80
2017-12-30T16:48:05.083Z,6.90
2017-12-30T16:50:31.052Z,6.90
2017-12-30T16:52:57.014Z,7.10
2017-12-30T16:55:23.155Z,7.10
2017-12-30T16:57:49.124Z,7.20
2017-12-30T17:00:15.085Z,7.20
2017-12-30T17:02:41.057Z,7.30
2017-12-30T17:05:07.800Z,7.30
2017-12-30T17:07:33.765Z,7.40
2017-12-30T17:09:59.768Z,7.40
2017-12-30T17:12:25.711Z,7.40
2017-12-30T17:14:51.682Z,7.40
2017-12-30T17:17:17.655Z,7.40
2017-12-30T17:19:43.619Z,7.60
2017-12-30T17:22:10.350Z,7.80
2017-12-30T17:24:37.083Z,7.80
2017-12-30T17:27:03.779Z,7.80
2017-12-30T17:29:29.779Z,7.80
2017-12-30T17:31:55.742Z,7.80
2017-12-30T17:34:21.706Z,7.80
2017-12-30T17:36:47.655Z,7.80
2017-12-30T17:39:13.627Z,7.80
2017-12-30T17:41:40.315Z,7.90
2017-12-30T17:44:06.292Z,7.80
2017-12-30T17:46:32.984Z,7.90
2017-12-30T17:48:58.971Z,7.80
2017-12-30T17:51:24.924Z,7.80
2017-12-30T17:53:50.904Z,7.80
2017-12-30T17:56:16.891Z,7.90
2017-12-30T17:58:42.851Z,7.90
2017-12-30T18:01:08.836Z,7.90
2017-12-30T18:03:34.807Z,7.90
2017-12-30T18:06:00.776Z,8.00
2017-12-30T18:08:26.735Z,8.00
2017-12-30T18:10:52.695Z,7.90
2017-12-30T18:13:18.678Z,7.90
2017-12-30T18:15:44.656Z,7.90
2017-12-30T18:18:12.114Z,7.90
2017-12-30T18:20:38.139Z,7.90
2017-12-30T18:23:04.859Z,7.90
2017-12-30T18:25:30.819Z,7.90
2017-12-30T18:27:57.524Z,8.00
2017-12-30T18:30:23.491Z,8.00
2017-12-30T18:32:50.207Z,8.20
2017-12-30T18:35:16.175Z,8.20
2017-12-30T18:37:42.159Z,8.30
2017-12-30T18:40:08.901Z,8.30
2017-12-30T18:42:35.592Z,8.30
2017-12-30T18:45:01.608Z,8.20
2017-12-30T18:47:27.609Z,8.30
2017-12-30T18:49:53.568Z,8.30
2017-12-30T18:52:19.546Z,8.20
2017-12-30T18:54:45.538Z,8.20
2017-12-30T18:57:11.491Z,8.20
2017-12-30T18:59:37.460Z,8.20
2017-12-30T19:02:03.433Z,8.20
2017-12-30T19:04:29.420Z,8.20
2017-12-30T19:06:56.123Z,8.30
2017-12-30T19:09:22.110Z,8.20
2017-12-30T19:11:48.296Z,8.20
2017-12-30T19:14:14.257Z,8.20
2017-12-30T19:16:40.224Z,8.30
2017-12-30T19:19:07.081Z,8.20
2017-12-30T19:21:33.027Z,8.20
2017-12-30T19:23:59.744Z,8.30
2017-12-30T19:26:25.704Z,8.30
2017-12-30T19:28:51.685Z,8.30
2017-12-30T19:31:17.638Z,8.30
2017-12-30T19:33:44.341Z,8.30
2017-12-30T19:36:10.314Z,8.20
2017-12-30T19:38:36.311Z,8.30
2017-12-30T19:41:03.025Z,8.30
2017-12-30T19:43:28.963Z,8.30
2017-12-30T19:45:56.827Z,8.30
2017-12-30T19:48:23.550Z,8.30
2017-12-30T19:50:49.497Z,8.30
2017-12-30T19:53:16.230Z,8.30
2017-12-30T19:55:42.931Z,8.20
2017-12-30T19:58:08.908Z,8.20
2017-12-30T20:00:35.095Z,8.20
2017-12-30T20:03:01.063Z,8.20
2017-12-30T20:05:27.028Z,8.20
2017-12-30T20:07:54.492Z,8.20
2017-12-30T20:10:20.453Z,8.20
2017-12-30T20:12:46.416Z,8.20
2017-12-30T20:15:12.866Z,8.20
2017-12-30T20:17:38.840Z,8.20
2017-12-30T20:20:04.799Z,8.10
2017-12-30T20:22:30.765Z,8.10
2017-12-30T20:24:56.768Z,8.10
2017-12-30T20:27:23.528Z,8.10
2017-12-30T20:29:49.484Z,8.10
2017-12-30T20:32:15.463Z,8.10
2017-12-30T20:34:42.496Z,8.10
2017-12-30T20:37:09.236Z,8.10
2017-12-30T20:39:35.956Z,8.00
2017-12-30T20:42:02.195Z,8.00
2017-12-30T20:44:28.148Z,8.10
2017-12-30T20:47:01.113Z,8.00
2017-12-30T20:49:27.823Z,8.00
2017-12-30T20:51:53.788Z,8.00
2017-12-30T20:54:19.763Z,8.00
2017-12-30T20:56:45.900Z,8.00
2017-12-30T20:59:11.874Z,8.00
2017-12-30T21:01:37.820Z,8.00
2017-12-30T21:04:03.807Z,7.90
2017-12-30T21:06:29.777Z,7.90
2017-12-30T21:08:55.728Z,7.80
2017-12-30T21:11:22.663Z,7.80
2017-12-30T21:13:49.532Z,7.80
2017-12-30T21:16:16.324Z,7.80
2017-12-30T21:18:42.563Z,7.80
2017-12-30T21:21:08.519Z,7.80
2017-12-30T21:23:34.524Z,7.80
2017-12-30T21:26:01.359Z,7.90
2017-12-30T21:28:28.067Z,7.90
2017-12-30T21:30:54.037Z,7.80
2017-12-30T21:33:20.951Z,7.90
2017-12-30T21:35:46.924Z,7.90
2017-12-30T21:38:12.884Z,7.90
2017-12-30T21:40:38.851Z,7.90
2017-12-30T21:43:04.872Z,7.90
2017-12-30T21:45:30.864Z,7.90
2017-12-30T21:47:56.831Z,7.90
2017-12-30T21:50:22.839Z,7.90
2017-12-30T21:52:48.811Z,7.90
2017-12-30T21:55:14.779Z,7.90
2017-12-30T21:57:40.793Z,7.90
2017-12-30T22:00:06.769Z,7.90
2017-12-30T22:02:32.704Z,8.00
2017-12-30T22:04:58.680Z,8.00
2017-12-30T22:07:31.737Z,8.00
2017-12-30T22:09:58.443Z,8.00
2017-12-30T22:12:24.416Z,7.90
2017-12-30T22:14:50.415Z,8.00
2017-12-30T22:17:17.112Z,8.00
2017-12-30T22:19:43.061Z,8.00
2017-12-30T22:22:09.392Z,8.00
2017-12-30T22:24:36.108Z,8.00
2017-12-30T22:27:02.068Z,8.00
2017-12-30T22:29:28.776Z,8.00
2017-12-30T22:31:54.747Z,8.00
2017-12-30T22:34:20.724Z,8.00
2017-12-30T22:36:46.700Z,8.00
2017-12-30T22:39:12.681Z,8.00
2017-12-30T22:41:39.397Z,8.10
2017-12-30T22:44:05.376Z,8.10
2017-12-30T22:46:31.331Z,8.10
2017-12-30T22:48:57.327Z,8.10
2017-12-30T22:51:23.275Z,8.10
2017-12-30T22:53:49.234Z,8.20
2017-12-30T22:56:15.941Z,8.20
2017-12-30T22:58:41.911Z,8.20
2017-12-30T23:01:07.897Z,8.20
2017-12-30T23:03:33.860Z,8.20
2017-12-30T23:05:59.823Z,8.20
2017-12-30T23:08:25.800Z,8.20
2017-12-30T23:10:51.779Z,8.20
2017-12-30T23:13:17.732Z,8.20
2017-12-30T23:15:44.457Z,8.30
2017-12-30T23:18:11.477Z,8.30
2017-12-30T23:20:37.448Z,8.30
2017-12-30T23:23:03.419Z,8.30
2017-12-30T23:25:29.389Z,8.40
2017-12-30T23:27:55.371Z,8.40
2017-12-30T23:30:21.353Z,8.40
2017-12-30T23:32:47.308Z,8.30
2017-12-30T23:35:13.285Z,8.30
2017-12-30T23:37:39.263Z,8.40
2017-12-30T23:40:05.234Z,8.30
2017-12-30T23:42:31.208Z,8.40
2017-12-30T23:44:57.246Z,8.40
2017-12-30T23:47:23.944Z,8.40
2017-12-30T23:49:49.929Z,8.40
2017-12-30T23:52:15.935Z,8.40
2017-12-30T23:54:41.903Z,8.40
2017-12-30T23:57:07.882Z,8.40
2017-12-30T23:59:33.839Z,8.40
